Wilson Bremen — 9HJV9 — position and weather

sailwx.info

Track history (hours):
 
Tides and Currents Weather Stations Pressure Air Temp Water Temp Dewpoint Dewpoint Depression Visibility Wind Speed Wind Dir Waves Ship Positions

Wilson Bremen

Last reported at 2018-Jun-24 08:58 UTC. Time now 2018-Jun-24 09:11 UTC.
Position N 51°28' E 003°42'.

Length 88 m; draft 5.6 m.

Type: Cargo ship. MMSI: 249076000.

Date/timePositionNaut miles runAvg speedWind from/ knotsBaromVisibWave heightAir tempDewpointWater temp
2018-Jun-24 08:58N 51°28' E 003°42'0 0.0
2018-Jun-24 08:28N 51°28' E 003°42'0 0.0
2018-Jun-24 07:58N 51°28' E 003°42'0 0.0
2018-Jun-24 07:25N 51°28' E 003°42'0 0.0
2018-Jun-24 06:58N 51°28' E 003°42'0 0.0
2018-Jun-24 06:22N 51°28' E 003°42'0 0.0
2018-Jun-24 05:58N 51°28' E 003°42'0 0.0
2018-Jun-24 05:28N 51°28' E 003°42'0 0.0
2018-Jun-24 04:58N 51°28' E 003°42'0 0.0
2018-Jun-24 04:28N 51°28' E 003°42'0 0.0
2018-Jun-24 03:58N 51°28' E 003°42'0 0.0
2018-Jun-24 03:25N 51°28' E 003°42'0 0.0
2018-Jun-24 02:58N 51°28' E 003°42'0 0.0
2018-Jun-24 02:28N 51°28' E 003°42'0 0.0
2018-Jun-24 01:58N 51°28' E 003°42'0 0.0
2018-Jun-24 01:25N 51°28' E 003°42'0 0.0
2018-Jun-24 00:58N 51°28' E 003°42'0 0.0
2018-Jun-24 00:28N 51°28' E 003°42'0 0.0
2018-Jun-23 23:58N 51°28' E 003°42'0 0.0
2018-Jun-23 23:28N 51°28' E 003°42'0 0.0
2018-Jun-23 22:55N 51°28' E 003°42'0 0.0
2018-Jun-23 22:28N 51°28' E 003°42'0 0.0
2018-Jun-23 21:55N 51°28' E 003°42'0 0.0
2018-Jun-23 21:28N 51°28' E 003°42'0 0.0
2018-Jun-23 20:52N 51°28' E 003°42'0 0.0
2018-Jun-23 20:19N 51°28' E 003°42'0 0.0
2018-Jun-23 19:55N 51°28' E 003°42'0 0.0
2018-Jun-23 19:22N 51°28' E 003°42'0 0.0
2018-Jun-23 18:52N 51°28' E 003°42'0 0.0
2018-Jun-23 18:28N 51°28' E 003°42'0 0.0
2018-Jun-23 17:46N 51°28' E 003°42'0 0.0
2018-Jun-23 17:25N 51°28' E 003°42'0 0.0
2018-Jun-23 16:52N 51°28' E 003°42'0 0.0
2018-Jun-23 16:22N 51°28' E 003°42'0 0.0
2018-Jun-23 15:55N 51°28' E 003°42'0 0.0
2018-Jun-23 15:28N 51°28' E 003°42'0 0.0
2018-Jun-23 14:46N 51°28' E 003°42'0 0.0
2018-Jun-23 14:28N 51°28' E 003°42'0 0.0
2018-Jun-23 13:58N 51°28' E 003°42'0 0.0
2018-Jun-23 13:28N 51°28' E 003°42'0 0.0
2018-Jun-23 12:49N 51°28' E 003°42'0 0.0
2018-Jun-23 12:25N 51°28' E 003°42'0 0.0
2018-Jun-23 11:52N 51°28' E 003°42'0 0.0
2018-Jun-23 11:25N 51°28' E 003°42'0 0.0
2018-Jun-23 10:46N 51°28' E 003°42'0 0.0
2018-Jun-23 10:28N 51°28' E 003°42'0 0.0
2018-Jun-23 09:52N 51°28' E 003°42'0 0.0
2018-Jun-23 09:28N 51°28' E 003°42'0 0.0
2018-Jun-23 08:58N 51°28' E 003°42'0 0.0
2018-Jun-23 08:28N 51°28' E 003°42'0 0.0
2018-Jun-23 07:58N 51°28' E 003°42'0 0.0
2018-Jun-23 07:22N 51°28' E 003°42'0 0.0
2018-Jun-23 06:58N 51°28' E 003°42'0 0.0
2018-Jun-23 06:22N 51°28' E 003°42'0 0.0
2018-Jun-23 05:55N 51°28' E 003°42'0 0.0
2018-Jun-23 05:22N 51°28' E 003°42'0 0.0
2018-Jun-23 04:52N 51°28' E 003°42'0 0.0
2018-Jun-23 04:28N 51°28' E 003°42'0 0.0
2018-Jun-23 03:58N 51°28' E 003°42'0 0.0
2018-Jun-23 03:28N 51°28' E 003°42'0 0.0
2018-Jun-23 02:58N 51°28' E 003°42'0 0.0
2018-Jun-23 02:28N 51°28' E 003°42'0 0.0
2018-Jun-23 01:58N 51°28' E 003°42'0 0.0
2018-Jun-23 01:28N 51°28' E 003°42'0 0.0
2018-Jun-23 00:52N 51°28' E 003°42'0 0.0
2018-Jun-23 00:28N 51°28' E 003°42'0 0.0
2018-Jun-22 23:58N 51°28' E 003°42'0 0.0
2018-Jun-22 23:16N 51°28' E 003°42'0 0.0
2018-Jun-22 22:58N 51°28' E 003°42'0 0.0
2018-Jun-22 22:22N 51°28' E 003°42'0 0.0
2018-Jun-22 21:52N 51°28' E 003°42'0 1.1
2018-Jun-22 21:30N 51°27' E 003°41'4 8.6
2018-Jun-22 21:00N 51°26' E 003°34'510.2
2018-Jun-22 20:30N 51°30' E 003°29'5 9.3
2018-Jun-22 20:00N 51°34' E 003°25'610.3
2018-Jun-22 19:28N 51°38' E 003°20'5 9.8
2018-Jun-22 18:55N 51°43' E 003°16'3 7.2
2018-Jun-22 18:29N 51°45' E 003°12'5 9.9
2018-Jun-22 17:56N 51°50' E 003°07'60 9.9
2018-Jun-22 11:49N 52°39' E 002°09'3 8.7
2018-Jun-22 11:27N 52°41' E 002°06'4 8.6
2018-Jun-22 11:00N 52°44' E 002°01'4 8.1
2018-Jun-22 10:30N 52°47' E 001°57'4 8.1
2018-Jun-22 10:00N 52°49' E 001°51'4 8.1
2018-Jun-22 09:30N 52°51' E 001°46'4 8.1
2018-Jun-22 09:00N 52°54' E 001°40'4 7.6
2018-Jun-22 08:30N 52°56' E 001°35'4 7.6
2018-Jun-22 08:00N 52°58' E 001°30'4 7.9
2018-Jun-22 07:30N 52°60' E 001°24'4 8.3
2018-Jun-22 06:59N 53°02' E 001°18'4 8.3
2018-Jun-22 06:30N 53°04' E 001°12'49 8.9
2018-Jun-22 00:58N 53°34' E 000°06'4 9.6
2018-Jun-22 00:30N 53°35' W 000°01'5 9.6
2018-Jun-22 00:01N 53°37' W 000°08'2 4.4
2018-Jun-21 23:30N 53°38' W 000°11'0 0.2
2018-Jun-21 22:01N 53°38' W 000°12'0 0.0
2018-Jun-21 21:55N 53°38' W 000°12'0 0.0
2018-Jun-21 21:28N 53°38' W 000°12'0 0.0
2018-Jun-21 20:46N 53°38' W 000°12'0 0.0
2018-Jun-21 20:25N 53°38' W 000°12'0 0.0
2018-Jun-21 19:43N 53°38' W 000°12'0 0.0
2018-Jun-21 19:28N 53°38' W 000°12'0 0.0
2018-Jun-21 18:58N 53°38' W 000°12'0 0.0
2018-Jun-21 18:28N 53°38' W 000°12'0 0.0
2018-Jun-21 17:58N 53°38' W 000°12'0 0.0
2018-Jun-21 17:28N 53°38' W 000°12'0 0.0
2018-Jun-21 16:58N 53°38' W 000°12'0 0.0
2018-Jun-21 16:28N 53°38' W 000°12'0 0.0
2018-Jun-21 15:55N 53°38' W 000°12'0 0.0
2018-Jun-21 15:04N 53°38' W 000°12'0 0.1
2018-Jun-21 14:49N 53°38' W 000°12'0 0.0
2018-Jun-21 14:19N 53°38' W 000°12'0 0.0
2018-Jun-21 13:52N 53°38' W 000°12'0 0.0
2018-Jun-21 13:16N 53°38' W 000°12'0 0.0
2018-Jun-21 11:26N 53°38' W 000°12'0 0.6
2018-Jun-21 11:00N 53°38' W 000°11'0 0.0
2018-Jun-21 10:30N 53°38' W 000°11'0 0.6
2018-Jun-21 10:00N 53°38' W 000°11'4 8.0
2018-Jun-21 09:30N 53°37' W 000°05'713.2
2018-Jun-21 09:00N 53°34' E 000°05'12 6.0
2018-Jun-21 07:00N 53°41' E 000°22'11 4.6
2018-Jun-21 04:38N 53°51' E 000°14'2 9.2
2018-Jun-21 04:22N 53°53' E 000°12'4 9.3
2018-Jun-21 03:59N 53°56' E 000°10'5 9.7
2018-Jun-21 03:30N 54°00' E 000°07'5 9.7
2018-Jun-21 03:01N 54°05' E 000°04'5 9.3
2018-Jun-21 02:31N 54°09' E 000°01'5 9.2
2018-Jun-21 02:00N 54°13' W 000°02'5 9.2
2018-Jun-21 01:31N 54°18' W 000°05'5 9.6
2018-Jun-21 01:01N 54°22' W 000°09'5 9.7
2018-Jun-21 00:31N 54°26' W 000°12'5 9.8
2018-Jun-21 00:01N 54°31' W 000°16'510.4
2018-Jun-20 23:30N 54°34' W 000°23'2310.3
2018-Jun-20 21:19N 54°47' W 000°55'3 9.9
2018-Jun-20 21:00N 54°48' W 000°60'5 9.8
2018-Jun-20 20:30N 54°51' W 001°07'5 9.9
2018-Jun-20 20:00N 54°53' W 001°14'4 8.9
2018-Jun-20 19:30N 54°55' W 001°22'1 1.1
2018-Jun-20 19:00N 54°55' W 001°21'0 0.0
2018-Jun-20 18:21N 54°55' W 001°21'0 0.0
2018-Jun-20 17:57N 54°55' W 001°21'0 0.0
2018-Jun-20 17:27N 54°55' W 001°21'0 0.0
2018-Jun-20 16:57N 54°55' W 001°21'0 0.0
2018-Jun-20 16:27N 54°55' W 001°21'0 0.0
2018-Jun-20 15:51N 54°55' W 001°21'0 0.0
2018-Jun-20 15:27N 54°55' W 001°21'0 0.0
2018-Jun-20 14:57N 54°55' W 001°21'0 0.0
2018-Jun-20 14:27N 54°55' W 001°21'0 0.0
2018-Jun-20 13:57N 54°55' W 001°21'0 0.0
2018-Jun-20 13:27N 54°55' W 001°21'0 0.0
2018-Jun-20 12:57N 54°55' W 001°21'0 0.0
2018-Jun-20 12:27N 54°55' W 001°21'0 0.0
2018-Jun-20 11:57N 54°55' W 001°21'0 0.0
2018-Jun-20 11:27N 54°55' W 001°21'0 0.0
2018-Jun-20 10:51N 54°55' W 001°21'0 0.0
2018-Jun-20 10:27N 54°55' W 001°21'0 0.0
2018-Jun-20 09:57N 54°55' W 001°21'0 0.0
2018-Jun-20 09:27N 54°55' W 001°21'0 0.0
2018-Jun-20 08:57N 54°55' W 001°21'0 0.0
2018-Jun-20 08:27N 54°55' W 001°21'0 0.0
2018-Jun-20 07:45N 54°55' W 001°21'0 0.0
2018-Jun-20 07:27N 54°55' W 001°21'0 0.0
2018-Jun-20 06:57N 54°55' W 001°21'0 0.0
2018-Jun-20 06:27N 54°55' W 001°21'0 0.0
2018-Jun-20 05:51N 54°55' W 001°21'0 0.0
2018-Jun-20 05:27N 54°55' W 001°21'0 0.0
2018-Jun-20 04:57N 54°55' W 001°21'0 0.0
2018-Jun-20 04:27N 54°55' W 001°21'0 0.0
2018-Jun-20 03:57N 54°55' W 001°21'0 0.0
2018-Jun-20 03:27N 54°55' W 001°21'0 0.0
2018-Jun-20 02:57N 54°55' W 001°21'0 0.0
2018-Jun-20 02:27N 54°55' W 001°21'0 0.0
2018-Jun-20 01:51N 54°55' W 001°21'0 0.0
2018-Jun-20 01:27N 54°55' W 001°21'0 0.0
2018-Jun-20 00:57N 54°55' W 001°21'0 0.0
2018-Jun-20 00:27N 54°55' W 001°21'0 0.0
2018-Jun-19 23:57N 54°55' W 001°21'0 0.0
2018-Jun-19 23:27N 54°55' W 001°21'0 0.0
2018-Jun-19 22:51N 54°55' W 001°21'0 0.0
2018-Jun-19 22:27N 54°55' W 001°21'0 0.0
2018-Jun-19 21:57N 54°55' W 001°21'0 0.0
2018-Jun-19 21:27N 54°55' W 001°21'0 0.0
2018-Jun-19 20:57N 54°55' W 001°21'0 0.0
2018-Jun-19 20:27N 54°55' W 001°21'0 0.0
2018-Jun-19 19:57N 54°55' W 001°21'0 0.0
2018-Jun-19 19:27N 54°55' W 001°21'0 0.0
2018-Jun-19 18:57N 54°55' W 001°21'0 0.0
2018-Jun-19 18:27N 54°55' W 001°21'0 0.0
2018-Jun-19 17:57N 54°55' W 001°21'0 0.0
2018-Jun-19 17:27N 54°55' W 001°21'0 0.0
2018-Jun-19 16:57N 54°55' W 001°21'0 0.0
2018-Jun-19 16:27N 54°55' W 001°21'0 0.0
2018-Jun-19 15:57N 54°55' W 001°21'0 0.0
2018-Jun-19 15:27N 54°55' W 001°21'0 0.0
2018-Jun-19 14:51N 54°55' W 001°21'0 0.0
2018-Jun-19 14:27N 54°55' W 001°21'0 0.0
2018-Jun-19 13:57N 54°55' W 001°21'0 0.0
2018-Jun-19 13:27N 54°55' W 001°21'0 0.0
2018-Jun-19 12:57N 54°55' W 001°21'0 0.0
2018-Jun-19 12:27N 54°55' W 001°21'0 0.0
2018-Jun-19 11:57N 54°55' W 001°21'0 0.0
2018-Jun-19 11:27N 54°55' W 001°21'0 0.0
2018-Jun-19 10:57N 54°55' W 001°21'0 0.0
2018-Jun-19 10:27N 54°55' W 001°21'0 0.0
2018-Jun-19 09:57N 54°55' W 001°21'0 0.0
2018-Jun-19 09:27N 54°55' W 001°21'0 0.0
2018-Jun-19 08:57N 54°55' W 001°21'0 0.0
2018-Jun-19 08:21N 54°55' W 001°21'0 0.0
2018-Jun-19 07:57N 54°55' W 001°21'0 0.0
2018-Jun-19 07:21N 54°55' W 001°21'0 0.0
2018-Jun-19 06:57N 54°55' W 001°21'0 0.0
2018-Jun-19 06:27N 54°55' W 001°21'0 0.0
2018-Jun-19 05:57N 54°55' W 001°21'0 0.0
2018-Jun-19 05:27N 54°55' W 001°21'0 0.0
2018-Jun-19 04:51N 54°55' W 001°21'0 0.0
2018-Jun-19 04:27N 54°55' W 001°21'0 0.0
2018-Jun-19 03:57N 54°55' W 001°21'0 0.0
2018-Jun-19 03:27N 54°55' W 001°21'0 0.0
2018-Jun-19 02:57N 54°55' W 001°21'0 0.0
2018-Jun-19 02:27N 54°55' W 001°21'0 0.0
2018-Jun-19 01:57N 54°55' W 001°21'0 0.0
2018-Jun-19 01:27N 54°55' W 001°21'0 0.0
2018-Jun-19 00:51N 54°55' W 001°21'0 0.0
2018-Jun-19 00:27N 54°55' W 001°21'0 0.0
2018-Jun-18 23:57N 54°55' W 001°21'0 0.0
2018-Jun-18 23:27N 54°55' W 001°21'0 0.0
2018-Jun-18 22:57N 54°55' W 001°21'0 0.0
2018-Jun-18 22:27N 54°55' W 001°21'0 0.0
2018-Jun-18 21:57N 54°55' W 001°21'0 0.0
2018-Jun-18 21:27N 54°55' W 001°21'0 0.0
2018-Jun-18 20:57N 54°55' W 001°21'0 0.0
2018-Jun-18 20:27N 54°55' W 001°21'0 0.0
2018-Jun-18 19:57N 54°55' W 001°21'0 0.0
2018-Jun-18 19:27N 54°55' W 001°21'0 0.0
2018-Jun-18 18:57N 54°55' W 001°21'0 0.0
2018-Jun-18 18:27N 54°55' W 001°21'0 0.0
2018-Jun-18 17:57N 54°55' W 001°21'0 0.0
2018-Jun-18 17:27N 54°55' W 001°21'0 0.0
2018-Jun-18 16:57N 54°55' W 001°21'0 0.0
2018-Jun-18 16:27N 54°55' W 001°21'0 0.0
2018-Jun-18 15:57N 54°55' W 001°21'0 0.0
2018-Jun-18 15:09N 54°55' W 001°21'0 0.0
2018-Jun-18 14:57N 54°55' W 001°21'0 0.0
2018-Jun-18 14:27N 54°55' W 001°21'0 0.0
2018-Jun-18 13:57N 54°55' W 001°21'0 0.0
2018-Jun-18 13:27N 54°55' W 001°21'0 0.0
2018-Jun-18 12:57N 54°55' W 001°21'0 0.0
2018-Jun-18 12:27N 54°55' W 001°21'0 0.0
2018-Jun-18 11:57N 54°55' W 001°21'0 0.0
2018-Jun-18 11:21N 54°55' W 001°21'0 0.0
2018-Jun-18 10:57N 54°55' W 001°21'0 0.0
2018-Jun-18 10:27N 54°55' W 001°21'0 0.0
2018-Jun-18 09:57N 54°55' W 001°21'0 0.0
2018-Jun-18 09:27N 54°55' W 001°21'0 0.0
2018-Jun-18 08:57N 54°55' W 001°21'0 0.0
2018-Jun-18 08:27N 54°55' W 001°21'0 0.0
2018-Jun-18 07:57N 54°55' W 001°21'0 0.0
2018-Jun-18 07:27N 54°55' W 001°21'0 0.0
2018-Jun-18 06:51N 54°55' W 001°21'0 0.0
2018-Jun-18 06:15N 54°55' W 001°21'0 0.0
2018-Jun-18 05:57N 54°55' W 001°21'0 0.0
2018-Jun-18 05:27N 54°55' W 001°21'0 0.0
2018-Jun-18 04:57N 54°55' W 001°21'0 0.0
2018-Jun-18 04:27N 54°55' W 001°21'0 0.0
2018-Jun-18 03:57N 54°55' W 001°21'0 0.0
2018-Jun-18 03:27N 54°55' W 001°21'0 0.0
2018-Jun-18 02:57N 54°55' W 001°21'0 0.0
2018-Jun-18 02:27N 54°55' W 001°21'0 0.0
2018-Jun-18 01:57N 54°55' W 001°21'0 0.0
2018-Jun-18 01:27N 54°55' W 001°21'0 0.0
2018-Jun-18 00:57N 54°55' W 001°21'0 0.0
2018-Jun-18 00:27N 54°55' W 001°21'0 0.0
2018-Jun-17 23:57N 54°55' W 001°21'0 0.0
2018-Jun-17 23:27N 54°55' W 001°21'0 0.0
2018-Jun-17 22:51N 54°55' W 001°21'0 0.0
2018-Jun-17 22:15N 54°55' W 001°21'0 0.0
2018-Jun-17 21:57N 54°55' W 001°21'0 0.0
2018-Jun-17 21:21N 54°55' W 001°21'0 0.0
2018-Jun-17 20:51N 54°55' W 001°21'0 0.0
2018-Jun-17 20:27N 54°55' W 001°21'0 0.0
2018-Jun-17 19:45N 54°55' W 001°21'0 0.0
2018-Jun-17 19:21N 54°55' W 001°21'0 0.0
2018-Jun-17 18:57N 54°55' W 001°21'0 0.0
2018-Jun-17 18:27N 54°55' W 001°21'0 0.9
2018-Jun-17 18:00N 54°55' W 001°22'5 9.4
2018-Jun-17 17:30N 54°57' W 001°15'4 8.3
2018-Jun-17 17:00N 54°59' W 001°09'3 6.0
2018-Jun-17 16:30N 55°01' W 001°04'3 6.8
2018-Jun-17 16:00N 55°02' W 000°59'315 9.0
2018-Jun-16 05:12N 57°41' E 007°12'210.3
2018-Jun-16 05:00N 57°42' E 007°15'510.7
2018-Jun-16 04:30N 57°44' E 007°25'510.8
2018-Jun-16 03:59N 57°46' E 007°34'510.4
2018-Jun-16 03:30N 57°49' E 007°42'510.3
2018-Jun-16 03:00N 57°51' E 007°51'510.2
2018-Jun-16 02:30N 57°53' E 007°59'510.1
2018-Jun-16 02:00N 57°57' E 008°06'5 9.9
2018-Jun-16 01:30N 58°00' E 008°13'5 9.5
2018-Jun-16 01:00N 58°03' E 008°20'5 9.5
2018-Jun-16 00:30N 58°06' E 008°27'5 9.9
2018-Jun-16 00:00N 58°09' E 008°35'5 9.7
2018-Jun-15 23:30N 58°12' E 008°42'5 9.8
2018-Jun-15 23:00N 58°15' E 008°49'510.2
2018-Jun-15 22:30N 58°18' E 008°57'510.2
2018-Jun-15 22:00N 58°21' E 009°05'510.3
2018-Jun-15 21:30N 58°25' E 009°12'510.2
2018-Jun-15 21:00N 58°28' E 009°20'510.3
2018-Jun-15 20:30N 58°31' E 009°28'510.1
2018-Jun-15 20:00N 58°34' E 009°36'5 9.7
2018-Jun-15 19:30N 58°37' E 009°43'5 9.2
2018-Jun-15 19:00N 58°40' E 009°50'4 8.5
2018-Jun-15 18:30N 58°42' E 009°57'4 8.3
2018-Jun-15 18:00N 58°45' E 010°03'4 7.8
2018-Jun-15 17:30N 58°47' E 010°09'4 7.5
2018-Jun-15 17:00N 58°49' E 010°14'4 7.7
2018-Jun-15 16:30N 58°52' E 010°20'4 7.8
2018-Jun-15 16:00N 58°54' E 010°26'4 8.2
2018-Jun-15 15:30N 58°57' E 010°33'4 8.6
2018-Jun-15 15:00N 58°59' E 010°39'4 8.5
2018-Jun-15 14:30N 59°02' E 010°46'4 8.2
2018-Jun-15 14:00N 59°01' E 010°54'3 5.6
2018-Jun-15 13:30N 59°03' E 010°58'510.1
2018-Jun-15 13:00N 59°08' E 010°58'3 6.7
2018-Jun-15 12:30N 59°11' E 010°57'0 0.0
2018-Jun-15 11:58N 59°11' E 010°57'0 0.0
2018-Jun-15 11:28N 59°11' E 010°57'0 0.0
2018-Jun-15 10:58N 59°11' E 010°57'0 0.0
2018-Jun-15 10:28N 59°11' E 010°57'0 0.0
2018-Jun-15 09:58N 59°11' E 010°57'0 0.0
2018-Jun-15 09:28N 59°11' E 010°57'0 0.0
2018-Jun-15 08:58N 59°11' E 010°57'0 0.0
2018-Jun-15 08:28N 59°11' E 010°57'0 0.0
2018-Jun-15 07:58N 59°11' E 010°57'0 0.0
2018-Jun-15 07:28N 59°11' E 010°57'0 0.0
2018-Jun-15 06:58N 59°11' E 010°57'0 0.0
2018-Jun-15 06:28N 59°11' E 010°57'0 0.0
2018-Jun-15 05:58N 59°11' E 010°57'0 0.0
2018-Jun-15 05:28N 59°11' E 010°57'0 0.0
2018-Jun-15 04:58N 59°11' E 010°57'0 0.0
2018-Jun-15 04:28N 59°11' E 010°57'0 0.0
2018-Jun-15 03:58N 59°11' E 010°57'0 0.0
2018-Jun-15 03:28N 59°11' E 010°57'0 0.0
2018-Jun-15 02:58N 59°11' E 010°57'0 0.0
2018-Jun-15 02:28N 59°11' E 010°57'0 0.0
2018-Jun-15 01:58N 59°11' E 010°57'0 0.0
2018-Jun-15 01:28N 59°11' E 010°57'0 0.0
2018-Jun-15 00:58N 59°11' E 010°57'0 0.0
2018-Jun-15 00:28N 59°11' E 010°57'0 0.0
2018-Jun-14 23:58N 59°11' E 010°57'0 0.0
2018-Jun-14 23:28N 59°11' E 010°57'0 0.0
2018-Jun-14 22:58N 59°11' E 010°57'0 0.0
2018-Jun-14 22:28N 59°11' E 010°57'0 0.0
2018-Jun-14 21:58N 59°11' E 010°57'0 0.0
2018-Jun-14 21:28N 59°11' E 010°57'0 0.0
2018-Jun-14 20:58N 59°11' E 010°57'0 0.0
2018-Jun-14 20:28N 59°11' E 010°57'0 0.0
2018-Jun-14 19:58N 59°11' E 010°57'0 0.0
2018-Jun-14 19:28N 59°11' E 010°57'0 0.0
2018-Jun-14 18:58N 59°11' E 010°57'0 0.0
2018-Jun-14 18:28N 59°11' E 010°57'0 0.0
2018-Jun-14 17:58N 59°11' E 010°57'0 0.0
2018-Jun-14 17:28N 59°11' E 010°57'0 0.0
2018-Jun-14 16:58N 59°11' E 010°57'0 0.0
2018-Jun-14 16:28N 59°11' E 010°57'0 0.0
2018-Jun-14 15:58N 59°11' E 010°57'0 0.0
2018-Jun-14 15:28N 59°11' E 010°57'0 0.0
2018-Jun-14 14:58N 59°11' E 010°57'0 0.0
2018-Jun-14 14:28N 59°11' E 010°57'0 0.0
2018-Jun-14 13:58N 59°11' E 010°57'0 0.0
2018-Jun-14 13:28N 59°11' E 010°57'0 0.0
2018-Jun-14 12:58N 59°11' E 010°57'0 0.5
2018-Jun-14 12:29N 59°11' E 010°57'0 0.0
2018-Jun-14 11:59N 59°11' E 010°57'0 0.0
2018-Jun-14 11:29N 59°11' E 010°57'0 0.0
2018-Jun-14 10:59N 59°11' E 010°57'0 0.0
2018-Jun-14 10:29N 59°11' E 010°57'0 0.0
2018-Jun-14 09:59N 59°11' E 010°57'0 0.0
2018-Jun-14 09:29N 59°11' E 010°57'0 0.0
2018-Jun-14 08:59N 59°11' E 010°57'  
Track history (hours):
 
Tides and Currents Weather Stations Pressure Air Temp Water Temp Dewpoint Dewpoint Depression Visibility Wind Speed Wind Dir Waves Ship Positions

Wilson Bremen

Last reported at 2018-Jun-24 08:58 UTC. Time now 2018-Jun-24 09:11 UTC.
Position N 51°28' E 003°42'.

Length 88 m; draft 5.6 m.

Type: Cargo ship. MMSI: 249076000.

Date/timePositionNaut miles runAvg speedWind from/ knotsBaromVisibWave heightAir tempDewpointWater temp
2018-Jun-24 08:58N 51°28' E 003°42'0 0.0
2018-Jun-24 08:28N 51°28' E 003°42'0 0.0
2018-Jun-24 07:58N 51°28' E 003°42'0 0.0
2018-Jun-24 07:25N 51°28' E 003°42'0 0.0
2018-Jun-24 06:58N 51°28' E 003°42'0 0.0
2018-Jun-24 06:22N 51°28' E 003°42'0 0.0
2018-Jun-24 05:58N 51°28' E 003°42'0 0.0
2018-Jun-24 05:28N 51°28' E 003°42'0 0.0
2018-Jun-24 04:58N 51°28' E 003°42'0 0.0
2018-Jun-24 04:28N 51°28' E 003°42'0 0.0
2018-Jun-24 03:58N 51°28' E 003°42'0 0.0
2018-Jun-24 03:25N 51°28' E 003°42'0 0.0
2018-Jun-24 02:58N 51°28' E 003°42'0 0.0
2018-Jun-24 02:28N 51°28' E 003°42'0 0.0
2018-Jun-24 01:58N 51°28' E 003°42'0 0.0
2018-Jun-24 01:25N 51°28' E 003°42'0 0.0
2018-Jun-24 00:58N 51°28' E 003°42'0 0.0
2018-Jun-24 00:28N 51°28' E 003°42'0 0.0
2018-Jun-23 23:58N 51°28' E 003°42'0 0.0
2018-Jun-23 23:28N 51°28' E 003°42'0 0.0
2018-Jun-23 22:55N 51°28' E 003°42'0 0.0
2018-Jun-23 22:28N 51°28' E 003°42'0 0.0
2018-Jun-23 21:55N 51°28' E 003°42'0 0.0
2018-Jun-23 21:28N 51°28' E 003°42'0 0.0
2018-Jun-23 20:52N 51°28' E 003°42'0 0.0
2018-Jun-23 20:19N 51°28' E 003°42'0 0.0
2018-Jun-23 19:55N 51°28' E 003°42'0 0.0
2018-Jun-23 19:22N 51°28' E 003°42'0 0.0
2018-Jun-23 18:52N 51°28' E 003°42'0 0.0
2018-Jun-23 18:28N 51°28' E 003°42'0 0.0
2018-Jun-23 17:46N 51°28' E 003°42'0 0.0
2018-Jun-23 17:25N 51°28' E 003°42'0 0.0
2018-Jun-23 16:52N 51°28' E 003°42'0 0.0
2018-Jun-23 16:22N 51°28' E 003°42'0 0.0
2018-Jun-23 15:55N 51°28' E 003°42'0 0.0
2018-Jun-23 15:28N 51°28' E 003°42'0 0.0
2018-Jun-23 14:46N 51°28' E 003°42'0 0.0
2018-Jun-23 14:28N 51°28' E 003°42'0 0.0
2018-Jun-23 13:58N 51°28' E 003°42'0 0.0
2018-Jun-23 13:28N 51°28' E 003°42'0 0.0
2018-Jun-23 12:49N 51°28' E 003°42'0 0.0
2018-Jun-23 12:25N 51°28' E 003°42'0 0.0
2018-Jun-23 11:52N 51°28' E 003°42'0 0.0
2018-Jun-23 11:25N 51°28' E 003°42'0 0.0
2018-Jun-23 10:46N 51°28' E 003°42'0 0.0
2018-Jun-23 10:28N 51°28' E 003°42'0 0.0
2018-Jun-23 09:52N 51°28' E 003°42'0 0.0
2018-Jun-23 09:28N 51°28' E 003°42'0 0.0
2018-Jun-23 08:58N 51°28' E 003°42'0 0.0
2018-Jun-23 08:28N 51°28' E 003°42'0 0.0
2018-Jun-23 07:58N 51°28' E 003°42'0 0.0
2018-Jun-23 07:22N 51°28' E 003°42'0 0.0
2018-Jun-23 06:58N 51°28' E 003°42'0 0.0
2018-Jun-23 06:22N 51°28' E 003°42'0 0.0
2018-Jun-23 05:55N 51°28' E 003°42'0 0.0
2018-Jun-23 05:22N 51°28' E 003°42'0 0.0
2018-Jun-23 04:52N 51°28' E 003°42'0 0.0
2018-Jun-23 04:28N 51°28' E 003°42'0 0.0
2018-Jun-23 03:58N 51°28' E 003°42'0 0.0
2018-Jun-23 03:28N 51°28' E 003°42'0 0.0
2018-Jun-23 02:58N 51°28' E 003°42'0 0.0
2018-Jun-23 02:28N 51°28' E 003°42'0 0.0
2018-Jun-23 01:58N 51°28' E 003°42'0 0.0
2018-Jun-23 01:28N 51°28' E 003°42'0 0.0
2018-Jun-23 00:52N 51°28' E 003°42'0 0.0
2018-Jun-23 00:28N 51°28' E 003°42'0 0.0
2018-Jun-22 23:58N 51°28' E 003°42'0 0.0
2018-Jun-22 23:16N 51°28' E 003°42'0 0.0
2018-Jun-22 22:58N 51°28' E 003°42'0 0.0
2018-Jun-22 22:22N 51°28' E 003°42'0 0.0
2018-Jun-22 21:52N 51°28' E 003°42'0 1.1
2018-Jun-22 21:30N 51°27' E 003°41'4 8.6
2018-Jun-22 21:00N 51°26' E 003°34'510.2
2018-Jun-22 20:30N 51°30' E 003°29'5 9.3
2018-Jun-22 20:00N 51°34' E 003°25'610.3
2018-Jun-22 19:28N 51°38' E 003°20'5 9.8
2018-Jun-22 18:55N 51°43' E 003°16'3 7.2
2018-Jun-22 18:29N 51°45' E 003°12'5 9.9
2018-Jun-22 17:56N 51°50' E 003°07'60 9.9
2018-Jun-22 11:49N 52°39' E 002°09'3 8.7
2018-Jun-22 11:27N 52°41' E 002°06'4 8.6
2018-Jun-22 11:00N 52°44' E 002°01'4 8.1
2018-Jun-22 10:30N 52°47' E 001°57'4 8.1
2018-Jun-22 10:00N 52°49' E 001°51'4 8.1
2018-Jun-22 09:30N 52°51' E 001°46'4 8.1
2018-Jun-22 09:00N 52°54' E 001°40'4 7.6
2018-Jun-22 08:30N 52°56' E 001°35'4 7.6
2018-Jun-22 08:00N 52°58' E 001°30'4 7.9
2018-Jun-22 07:30N 52°60' E 001°24'4 8.3
2018-Jun-22 06:59N 53°02' E 001°18'4 8.3
2018-Jun-22 06:30N 53°04' E 001°12'49 8.9
2018-Jun-22 00:58N 53°34' E 000°06'4 9.6
2018-Jun-22 00:30N 53°35' W 000°01'5 9.6
2018-Jun-22 00:01N 53°37' W 000°08'2 4.4
2018-Jun-21 23:30N 53°38' W 000°11'0 0.2
2018-Jun-21 22:01N 53°38' W 000°12'0 0.0
2018-Jun-21 21:55N 53°38' W 000°12'0 0.0
2018-Jun-21 21:28N 53°38' W 000°12'0 0.0
2018-Jun-21 20:46N 53°38' W 000°12'0 0.0
2018-Jun-21 20:25N 53°38' W 000°12'0 0.0
2018-Jun-21 19:43N 53°38' W 000°12'0 0.0
2018-Jun-21 19:28N 53°38' W 000°12'0 0.0
2018-Jun-21 18:58N 53°38' W 000°12'0 0.0
2018-Jun-21 18:28N 53°38' W 000°12'0 0.0
2018-Jun-21 17:58N 53°38' W 000°12'0 0.0
2018-Jun-21 17:28N 53°38' W 000°12'0 0.0
2018-Jun-21 16:58N 53°38' W 000°12'0 0.0
2018-Jun-21 16:28N 53°38' W 000°12'0 0.0
2018-Jun-21 15:55N 53°38' W 000°12'0 0.0
2018-Jun-21 15:04N 53°38' W 000°12'0 0.1
2018-Jun-21 14:49N 53°38' W 000°12'0 0.0
2018-Jun-21 14:19N 53°38' W 000°12'0 0.0
2018-Jun-21 13:52N 53°38' W 000°12'0 0.0
2018-Jun-21 13:16N 53°38' W 000°12'0 0.0
2018-Jun-21 11:26N 53°38' W 000°12'0 0.6
2018-Jun-21 11:00N 53°38' W 000°11'0 0.0
2018-Jun-21 10:30N 53°38' W 000°11'0 0.6
2018-Jun-21 10:00N 53°38' W 000°11'4 8.0
2018-Jun-21 09:30N 53°37' W 000°05'713.2
2018-Jun-21 09:00N 53°34' E 000°05'12 6.0
2018-Jun-21 07:00N 53°41' E 000°22'11 4.6
2018-Jun-21 04:38N 53°51' E 000°14'2 9.2
2018-Jun-21 04:22N 53°53' E 000°12'4 9.3
2018-Jun-21 03:59N 53°56' E 000°10'5 9.7
2018-Jun-21 03:30N 54°00' E 000°07'5 9.7
2018-Jun-21 03:01N 54°05' E 000°04'5 9.3
2018-Jun-21 02:31N 54°09' E 000°01'5 9.2
2018-Jun-21 02:00N 54°13' W 000°02'5 9.2
2018-Jun-21 01:31N 54°18' W 000°05'5 9.6
2018-Jun-21 01:01N 54°22' W 000°09'5 9.7
2018-Jun-21 00:31N 54°26' W 000°12'5 9.8
2018-Jun-21 00:01N 54°31' W 000°16'510.4
2018-Jun-20 23:30N 54°34' W 000°23'2310.3
2018-Jun-20 21:19N 54°47' W 000°55'3 9.9
2018-Jun-20 21:00N 54°48' W 000°60'5 9.8
2018-Jun-20 20:30N 54°51' W 001°07'5 9.9
2018-Jun-20 20:00N 54°53' W 001°14'4 8.9
2018-Jun-20 19:30N 54°55' W 001°22'1 1.1
2018-Jun-20 19:00N 54°55' W 001°21'0 0.0
2018-Jun-20 18:21N 54°55' W 001°21'0 0.0
2018-Jun-20 17:57N 54°55' W 001°21'0 0.0
2018-Jun-20 17:27N 54°55' W 001°21'0 0.0
2018-Jun-20 16:57N 54°55' W 001°21'0 0.0
2018-Jun-20 16:27N 54°55' W 001°21'0 0.0
2018-Jun-20 15:51N 54°55' W 001°21'0 0.0
2018-Jun-20 15:27N 54°55' W 001°21'0 0.0
2018-Jun-20 14:57N 54°55' W 001°21'0 0.0
2018-Jun-20 14:27N 54°55' W 001°21'0 0.0
2018-Jun-20 13:57N 54°55' W 001°21'0 0.0
2018-Jun-20 13:27N 54°55' W 001°21'0 0.0
2018-Jun-20 12:57N 54°55' W 001°21'0 0.0
2018-Jun-20 12:27N 54°55' W 001°21'0 0.0
2018-Jun-20 11:57N 54°55' W 001°21'0 0.0
2018-Jun-20 11:27N 54°55' W 001°21'0 0.0
2018-Jun-20 10:51N 54°55' W 001°21'0 0.0
2018-Jun-20 10:27N 54°55' W 001°21'0 0.0
2018-Jun-20 09:57N 54°55' W 001°21'0 0.0
2018-Jun-20 09:27N 54°55' W 001°21'0 0.0
2018-Jun-20 08:57N 54°55' W 001°21'0 0.0
2018-Jun-20 08:27N 54°55' W 001°21'0 0.0
2018-Jun-20 07:45N 54°55' W 001°21'0 0.0
2018-Jun-20 07:27N 54°55' W 001°21'0 0.0
2018-Jun-20 06:57N 54°55' W 001°21'0 0.0
2018-Jun-20 06:27N 54°55' W 001°21'0 0.0
2018-Jun-20 05:51N 54°55' W 001°21'0 0.0
2018-Jun-20 05:27N 54°55' W 001°21'0 0.0
2018-Jun-20 04:57N 54°55' W 001°21'0 0.0
2018-Jun-20 04:27N 54°55' W 001°21'0 0.0
2018-Jun-20 03:57N 54°55' W 001°21'0 0.0
2018-Jun-20 03:27N 54°55' W 001°21'0 0.0
2018-Jun-20 02:57N 54°55' W 001°21'0 0.0
2018-Jun-20 02:27N 54°55' W 001°21'0 0.0
2018-Jun-20 01:51N 54°55' W 001°21'0 0.0
2018-Jun-20 01:27N 54°55' W 001°21'0 0.0
2018-Jun-20 00:57N 54°55' W 001°21'0 0.0
2018-Jun-20 00:27N 54°55' W 001°21'0 0.0
2018-Jun-19 23:57N 54°55' W 001°21'0 0.0
2018-Jun-19 23:27N 54°55' W 001°21'0 0.0
2018-Jun-19 22:51N 54°55' W 001°21'0 0.0
2018-Jun-19 22:27N 54°55' W 001°21'0 0.0
2018-Jun-19 21:57N 54°55' W 001°21'0 0.0
2018-Jun-19 21:27N 54°55' W 001°21'0 0.0
2018-Jun-19 20:57N 54°55' W 001°21'0 0.0
2018-Jun-19 20:27N 54°55' W 001°21'0 0.0
2018-Jun-19 19:57N 54°55' W 001°21'0 0.0
2018-Jun-19 19:27N 54°55' W 001°21'0 0.0
2018-Jun-19 18:57N 54°55' W 001°21'0 0.0
2018-Jun-19 18:27N 54°55' W 001°21'0 0.0
2018-Jun-19 17:57N 54°55' W 001°21'0 0.0
2018-Jun-19 17:27N 54°55' W 001°21'0 0.0
2018-Jun-19 16:57N 54°55' W 001°21'0 0.0
2018-Jun-19 16:27N 54°55' W 001°21'0 0.0
2018-Jun-19 15:57N 54°55' W 001°21'0 0.0
2018-Jun-19 15:27N 54°55' W 001°21'0 0.0
2018-Jun-19 14:51N 54°55' W 001°21'0 0.0
2018-Jun-19 14:27N 54°55' W 001°21'0 0.0
2018-Jun-19 13:57N 54°55' W 001°21'0 0.0
2018-Jun-19 13:27N 54°55' W 001°21'0 0.0
2018-Jun-19 12:57N 54°55' W 001°21'0 0.0
2018-Jun-19 12:27N 54°55' W 001°21'0 0.0
2018-Jun-19 11:57N 54°55' W 001°21'0 0.0
2018-Jun-19 11:27N 54°55' W 001°21'0 0.0
2018-Jun-19 10:57N 54°55' W 001°21'0 0.0
2018-Jun-19 10:27N 54°55' W 001°21'0 0.0
2018-Jun-19 09:57N 54°55' W 001°21'0 0.0
2018-Jun-19 09:27N 54°55' W 001°21'0 0.0
2018-Jun-19 08:57N 54°55' W 001°21'0 0.0
2018-Jun-19 08:21N 54°55' W 001°21'0 0.0
2018-Jun-19 07:57N 54°55' W 001°21'0 0.0
2018-Jun-19 07:21N 54°55' W 001°21'0 0.0
2018-Jun-19 06:57N 54°55' W 001°21'0 0.0
2018-Jun-19 06:27N 54°55' W 001°21'0 0.0
2018-Jun-19 05:57N 54°55' W 001°21'0 0.0
2018-Jun-19 05:27N 54°55' W 001°21'0 0.0
2018-Jun-19 04:51N 54°55' W 001°21'0 0.0
2018-Jun-19 04:27N 54°55' W 001°21'0 0.0
2018-Jun-19 03:57N 54°55' W 001°21'0 0.0
2018-Jun-19 03:27N 54°55' W 001°21'0 0.0
2018-Jun-19 02:57N 54°55' W 001°21'0 0.0
2018-Jun-19 02:27N 54°55' W 001°21'0 0.0
2018-Jun-19 01:57N 54°55' W 001°21'0 0.0
2018-Jun-19 01:27N 54°55' W 001°21'0 0.0
2018-Jun-19 00:51N 54°55' W 001°21'0 0.0
2018-Jun-19 00:27N 54°55' W 001°21'0 0.0
2018-Jun-18 23:57N 54°55' W 001°21'0 0.0
2018-Jun-18 23:27N 54°55' W 001°21'0 0.0
2018-Jun-18 22:57N 54°55' W 001°21'0 0.0
2018-Jun-18 22:27N 54°55' W 001°21'0 0.0
2018-Jun-18 21:57N 54°55' W 001°21'0 0.0
2018-Jun-18 21:27N 54°55' W 001°21'0 0.0
2018-Jun-18 20:57N 54°55' W 001°21'0 0.0
2018-Jun-18 20:27N 54°55' W 001°21'0 0.0
2018-Jun-18 19:57N 54°55' W 001°21'0 0.0
2018-Jun-18 19:27N 54°55' W 001°21'0 0.0
2018-Jun-18 18:57N 54°55' W 001°21'0 0.0
2018-Jun-18 18:27N 54°55' W 001°21'0 0.0
2018-Jun-18 17:57N 54°55' W 001°21'0 0.0
2018-Jun-18 17:27N 54°55' W 001°21'0 0.0
2018-Jun-18 16:57N 54°55' W 001°21'0 0.0
2018-Jun-18 16:27N 54°55' W 001°21'0 0.0
2018-Jun-18 15:57N 54°55' W 001°21'0 0.0
2018-Jun-18 15:09N 54°55' W 001°21'0 0.0
2018-Jun-18 14:57N 54°55' W 001°21'0 0.0
2018-Jun-18 14:27N 54°55' W 001°21'0 0.0
2018-Jun-18 13:57N 54°55' W 001°21'0 0.0
2018-Jun-18 13:27N 54°55' W 001°21'0 0.0
2018-Jun-18 12:57N 54°55' W 001°21'0 0.0
2018-Jun-18 12:27N 54°55' W 001°21'0 0.0
2018-Jun-18 11:57N 54°55' W 001°21'0 0.0
2018-Jun-18 11:21N 54°55' W 001°21'0 0.0
2018-Jun-18 10:57N 54°55' W 001°21'0 0.0
2018-Jun-18 10:27N 54°55' W 001°21'0 0.0
2018-Jun-18 09:57N 54°55' W 001°21'0 0.0
2018-Jun-18 09:27N 54°55' W 001°21'0 0.0
2018-Jun-18 08:57N 54°55' W 001°21'0 0.0
2018-Jun-18 08:27N 54°55' W 001°21'0 0.0
2018-Jun-18 07:57N 54°55' W 001°21'0 0.0
2018-Jun-18 07:27N 54°55' W 001°21'0 0.0
2018-Jun-18 06:51N 54°55' W 001°21'0 0.0
2018-Jun-18 06:15N 54°55' W 001°21'0 0.0
2018-Jun-18 05:57N 54°55' W 001°21'0 0.0
2018-Jun-18 05:27N 54°55' W 001°21'0 0.0
2018-Jun-18 04:57N 54°55' W 001°21'0 0.0
2018-Jun-18 04:27N 54°55' W 001°21'0 0.0
2018-Jun-18 03:57N 54°55' W 001°21'0 0.0
2018-Jun-18 03:27N 54°55' W 001°21'0 0.0
2018-Jun-18 02:57N 54°55' W 001°21'0 0.0
2018-Jun-18 02:27N 54°55' W 001°21'0 0.0
2018-Jun-18 01:57N 54°55' W 001°21'0 0.0
2018-Jun-18 01:27N 54°55' W 001°21'0 0.0
2018-Jun-18 00:57N 54°55' W 001°21'0 0.0
2018-Jun-18 00:27N 54°55' W 001°21'0 0.0
2018-Jun-17 23:57N 54°55' W 001°21'0 0.0
2018-Jun-17 23:27N 54°55' W 001°21'0 0.0
2018-Jun-17 22:51N 54°55' W 001°21'0 0.0
2018-Jun-17 22:15N 54°55' W 001°21'0 0.0
2018-Jun-17 21:57N 54°55' W 001°21'0 0.0
2018-Jun-17 21:21N 54°55' W 001°21'0 0.0
2018-Jun-17 20:51N 54°55' W 001°21'0 0.0
2018-Jun-17 20:27N 54°55' W 001°21'0 0.0
2018-Jun-17 19:45N 54°55' W 001°21'0 0.0
2018-Jun-17 19:21N 54°55' W 001°21'0 0.0
2018-Jun-17 18:57N 54°55' W 001°21'0 0.0
2018-Jun-17 18:27N 54°55' W 001°21'0 0.9
2018-Jun-17 18:00N 54°55' W 001°22'5 9.4
2018-Jun-17 17:30N 54°57' W 001°15'4 8.3
2018-Jun-17 17:00N 54°59' W 001°09'3 6.0
2018-Jun-17 16:30N 55°01' W 001°04'3 6.8
2018-Jun-17 16:00N 55°02' W 000°59'315 9.0
2018-Jun-16 05:12N 57°41' E 007°12'210.3
2018-Jun-16 05:00N 57°42' E 007°15'510.7
2018-Jun-16 04:30N 57°44' E 007°25'510.8
2018-Jun-16 03:59N 57°46' E 007°34'510.4
2018-Jun-16 03:30N 57°49' E 007°42'510.3
2018-Jun-16 03:00N 57°51' E 007°51'510.2
2018-Jun-16 02:30N 57°53' E 007°59'510.1
2018-Jun-16 02:00N 57°57' E 008°06'5 9.9
2018-Jun-16 01:30N 58°00' E 008°13'5 9.5
2018-Jun-16 01:00N 58°03' E 008°20'5 9.5
2018-Jun-16 00:30N 58°06' E 008°27'5 9.9
2018-Jun-16 00:00N 58°09' E 008°35'5 9.7
2018-Jun-15 23:30N 58°12' E 008°42'5 9.8
2018-Jun-15 23:00N 58°15' E 008°49'510.2
2018-Jun-15 22:30N 58°18' E 008°57'510.2
2018-Jun-15 22:00N 58°21' E 009°05'510.3
2018-Jun-15 21:30N 58°25' E 009°12'510.2
2018-Jun-15 21:00N 58°28' E 009°20'510.3
2018-Jun-15 20:30N 58°31' E 009°28'510.1
2018-Jun-15 20:00N 58°34' E 009°36'5 9.7
2018-Jun-15 19:30N 58°37' E 009°43'5 9.2
2018-Jun-15 19:00N 58°40' E 009°50'4 8.5
2018-Jun-15 18:30N 58°42' E 009°57'4 8.3
2018-Jun-15 18:00N 58°45' E 010°03'4 7.8
2018-Jun-15 17:30N 58°47' E 010°09'4 7.5
2018-Jun-15 17:00N 58°49' E 010°14'4 7.7
2018-Jun-15 16:30N 58°52' E 010°20'4 7.8
2018-Jun-15 16:00N 58°54' E 010°26'4 8.2
2018-Jun-15 15:30N 58°57' E 010°33'4 8.6
2018-Jun-15 15:00N 58°59' E 010°39'4 8.5
2018-Jun-15 14:30N 59°02' E 010°46'4 8.2
2018-Jun-15 14:00N 59°01' E 010°54'3 5.6
2018-Jun-15 13:30N 59°03' E 010°58'510.1
2018-Jun-15 13:00N 59°08' E 010°58'3 6.7
2018-Jun-15 12:30N 59°11' E 010°57'0 0.0
2018-Jun-15 11:58N 59°11' E 010°57'0 0.0
2018-Jun-15 11:28N 59°11' E 010°57'0 0.0
2018-Jun-15 10:58N 59°11' E 010°57'0 0.0
2018-Jun-15 10:28N 59°11' E 010°57'0 0.0
2018-Jun-15 09:58N 59°11' E 010°57'0 0.0
2018-Jun-15 09:28N 59°11' E 010°57'0 0.0
2018-Jun-15 08:58N 59°11' E 010°57'0 0.0
2018-Jun-15 08:28N 59°11' E 010°57'0 0.0
2018-Jun-15 07:58N 59°11' E 010°57'0 0.0
2018-Jun-15 07:28N 59°11' E 010°57'0 0.0
2018-Jun-15 06:58N 59°11' E 010°57'0 0.0
2018-Jun-15 06:28N 59°11' E 010°57'0 0.0
2018-Jun-15 05:58N 59°11' E 010°57'0 0.0
2018-Jun-15 05:28N 59°11' E 010°57'0 0.0
2018-Jun-15 04:58N 59°11' E 010°57'0 0.0
2018-Jun-15 04:28N 59°11' E 010°57'0 0.0
2018-Jun-15 03:58N 59°11' E 010°57'0 0.0
2018-Jun-15 03:28N 59°11' E 010°57'0 0.0
2018-Jun-15 02:58N 59°11' E 010°57'0 0.0
2018-Jun-15 02:28N 59°11' E 010°57'0 0.0
2018-Jun-15 01:58N 59°11' E 010°57'0 0.0
2018-Jun-15 01:28N 59°11' E 010°57'0 0.0
2018-Jun-15 00:58N 59°11' E 010°57'0 0.0
2018-Jun-15 00:28N 59°11' E 010°57'0 0.0
2018-Jun-14 23:58N 59°11' E 010°57'0 0.0
2018-Jun-14 23:28N 59°11' E 010°57'0 0.0
2018-Jun-14 22:58N 59°11' E 010°57'0 0.0
2018-Jun-14 22:28N 59°11' E 010°57'0 0.0
2018-Jun-14 21:58N 59°11' E 010°57'0 0.0
2018-Jun-14 21:28N 59°11' E 010°57'0 0.0
2018-Jun-14 20:58N 59°11' E 010°57'0 0.0
2018-Jun-14 20:28N 59°11' E 010°57'0 0.0
2018-Jun-14 19:58N 59°11' E 010°57'0 0.0
2018-Jun-14 19:28N 59°11' E 010°57'0 0.0
2018-Jun-14 18:58N 59°11' E 010°57'0 0.0
2018-Jun-14 18:28N 59°11' E 010°57'0 0.0
2018-Jun-14 17:58N 59°11' E 010°57'0 0.0
2018-Jun-14 17:28N 59°11' E 010°57'0 0.0
2018-Jun-14 16:58N 59°11' E 010°57'0 0.0
2018-Jun-14 16:28N 59°11' E 010°57'0 0.0
2018-Jun-14 15:58N 59°11' E 010°57'0 0.0
2018-Jun-14 15:28N 59°11' E 010°57'0 0.0
2018-Jun-14 14:58N 59°11' E 010°57'0 0.0
2018-Jun-14 14:28N 59°11' E 010°57'0 0.0
2018-Jun-14 13:58N 59°11' E 010°57'0 0.0
2018-Jun-14 13:28N 59°11' E 010°57'0 0.0
2018-Jun-14 12:58N 59°11' E 010°57'0 0.5
2018-Jun-14 12:29N 59°11' E 010°57'0 0.0
2018-Jun-14 11:59N 59°11' E 010°57'0 0.0
2018-Jun-14 11:29N 59°11' E 010°57'0 0.0
2018-Jun-14 10:59N 59°11' E 010°57'0 0.0
2018-Jun-14 10:29N 59°11' E 010°57'0 0.0
2018-Jun-14 09:59N 59°11' E 010°57'0 0.0
2018-Jun-14 09:29N 59°11' E 010°57'0 0.0
2018-Jun-14 08:59N 59°11' E 010°57'  

Dump ship's entire track history